createdAt,value
2017-05-03T04:00:54.638Z,5
2017-05-03T04:01:20.151Z,5
2017-05-03T04:01:45.632Z,5
2017-05-03T04:02:11.087Z,5
2017-05-03T04:02:36.532Z,5
2017-05-03T04:03:02.008Z,5
2017-05-03T04:03:27.468Z,5
2017-05-03T04:03:52.907Z,5
2017-05-03T04:04:18.395Z,5
2017-05-03T04:04:43.894Z,10
2017-05-03T04:05:09.330Z,10
2017-05-03T04:05:34.803Z,10
2017-05-03T04:06:00.298Z,10
2017-05-03T04:06:25.767Z,10
2017-05-03T04:06:51.269Z,10
2017-05-03T04:07:16.745Z,10
2017-05-03T04:07:42.238Z,10
2017-05-03T04:08:07.727Z,10
2017-05-03T04:08:33.187Z,10
2017-05-03T04:08:58.679Z,10
2017-05-03T04:09:24.173Z,10
2017-05-03T04:09:49.653Z,10
2017-05-03T04:10:15.134Z,10
2017-05-03T04:10:40.623Z,15
2017-05-03T04:11:06.107Z,15
2017-05-03T04:11:31.616Z,15
2017-05-03T04:11:57.106Z,10
2017-05-03T04:12:22.585Z,10
2017-05-03T04:12:48.054Z,10
2017-05-03T04:13:13.524Z,15
2017-05-03T04:13:38.958Z,15
2017-05-03T04:14:04.402Z,15
2017-05-03T04:14:29.900Z,15
2017-05-03T04:14:55.439Z,15
2017-05-03T04:15:20.885Z,15
2017-05-03T04:15:46.388Z,15
2017-05-03T04:16:11.941Z,20
2017-05-03T04:16:37.430Z,20
2017-05-03T04:17:02.897Z,20
2017-05-03T04:17:28.392Z,20
2017-05-03T04:17:53.873Z,20
2017-05-03T04:18:19.369Z,20
2017-05-03T04:18:44.832Z,20
2017-05-03T04:19:10.306Z,20
2017-05-03T04:19:35.758Z,25
2017-05-03T04:20:01.216Z,25
2017-05-03T04:20:26.694Z,25
2017-05-03T04:20:52.212Z,25
2017-05-03T04:21:17.729Z,25
2017-05-03T04:21:43.225Z,25
2017-05-03T04:22:08.740Z,25
2017-05-03T04:22:34.218Z,25
2017-05-03T04:22:59.687Z,25
2017-05-03T04:23:25.155Z,30
2017-05-03T04:23:50.632Z,30
2017-05-03T04:24:16.119Z,30
2017-05-03T04:24:41.592Z,30
2017-05-03T04:25:07.054Z,30
2017-05-03T04:25:32.559Z,30
2017-05-03T04:25:58.042Z,30
2017-05-03T04:26:23.530Z,30
2017-05-03T04:26:49.016Z,30
2017-05-03T04:27:14.492Z,30
2017-05-03T04:27:39.952Z,30
2017-05-03T04:28:05.462Z,30
2017-05-03T04:28:30.942Z,30
2017-05-03T04:28:56.412Z,35
2017-05-03T04:29:21.874Z,35
2017-05-03T04:29:47.356Z,35
2017-05-03T04:30:12.871Z,35
2017-05-03T04:30:38.328Z,35
2017-05-03T04:31:03.830Z,35
2017-05-03T04:31:29.334Z,35
2017-05-03T04:31:54.798Z,35
2017-05-03T04:32:20.267Z,35
2017-05-03T04:32:45.758Z,30
2017-05-03T04:33:11.207Z,30
2017-05-03T04:33:36.671Z,30
2017-05-03T04:34:02.151Z,30
2017-05-03T04:34:27.602Z,30
2017-05-03T04:34:53.060Z,25
2017-05-03T04:35:18.548Z,25
2017-05-03T04:35:44.037Z,20
2017-05-03T04:36:09.523Z,20
2017-05-03T04:36:35.048Z,20
2017-05-03T04:37:00.513Z,20
2017-05-03T04:37:26.013Z,20
2017-05-03T04:37:51.517Z,20
2017-05-03T04:38:16.962Z,20
2017-05-03T04:38:42.447Z,20
2017-05-03T04:39:07.938Z,20
2017-05-03T04:39:33.431Z,20
2017-05-03T04:39:58.902Z,20
2017-05-03T04:40:24.356Z,20
2017-05-03T04:40:49.834Z,20
2017-05-03T04:41:15.338Z,20
2017-05-03T04:41:40.848Z,20
2017-05-03T04:42:06.351Z,25
2017-05-03T04:42:31.783Z,25
2017-05-03T04:42:57.253Z,25
2017-05-03T04:43:22.725Z,25
2017-05-03T04:43:48.211Z,25
2017-05-03T04:44:13.689Z,25
2017-05-03T04:44:39.224Z,25
2017-05-03T04:45:04.651Z,25
2017-05-03T04:45:30.122Z,25
2017-05-03T04:45:55.608Z,25
2017-05-03T04:46:21.093Z,20
2017-05-03T04:46:46.616Z,20
2017-05-03T04:47:12.110Z,20
2017-05-03T04:47:37.607Z,20
2017-05-03T04:48:03.110Z,20
2017-05-03T04:48:28.547Z,20
2017-05-03T04:48:53.998Z,20
2017-05-03T04:49:19.455Z,20
2017-05-03T04:49:44.990Z,20
2017-05-03T04:50:10.449Z,15
2017-05-03T04:50:35.920Z,15
2017-05-03T04:51:01.429Z,15
2017-05-03T04:51:26.888Z,15
2017-05-03T04:51:52.361Z,15
2017-05-03T04:52:17.852Z,15
2017-05-03T04:52:43.312Z,15
2017-05-03T04:53:08.801Z,15
2017-05-03T04:53:34.320Z,15
2017-05-03T04:53:59.772Z,15
2017-05-03T04:54:25.273Z,15
2017-05-03T04:54:50.768Z,15
2017-05-03T04:55:16.256Z,15
2017-05-03T04:55:41.693Z,15
2017-05-03T04:56:07.195Z,15
2017-05-03T04:56:32.671Z,15
2017-05-03T04:56:58.116Z,15
2017-05-03T04:57:23.598Z,15
2017-05-03T04:57:49.080Z,15
2017-05-03T04:58:14.561Z,15
2017-05-03T04:58:40.016Z,15
2017-05-03T04:59:05.501Z,15
2017-05-03T04:59:31.004Z,15
2017-05-03T04:59:56.477Z,15
2017-05-03T05:00:21.925Z,15
2017-05-03T05:00:47.374Z,20
2017-05-03T05:01:12.897Z,20
2017-05-03T05:01:38.363Z,20
2017-05-03T05:02:03.849Z,20
2017-05-03T05:02:29.314Z,20
2017-05-03T05:02:54.787Z,20
2017-05-03T05:03:20.247Z,20
2017-05-03T05:03:45.744Z,20
2017-05-03T05:04:11.198Z,20
2017-05-03T05:04:36.636Z,20
2017-05-03T05:05:02.092Z,25
2017-05-03T05:05:27.565Z,25
2017-05-03T05:05:53.035Z,25
2017-05-03T05:06:18.509Z,25
2017-05-03T05:06:44.068Z,25
2017-05-03T05:07:09.520Z,25
2017-05-03T05:07:34.997Z,25
2017-05-03T05:08:00.502Z,25
2017-05-03T05:08:25.978Z,25
2017-05-03T05:08:51.473Z,25
2017-05-03T05:09:16.943Z,25
2017-05-03T05:09:42.437Z,25
2017-05-03T05:10:07.908Z,25
2017-05-03T05:10:33.399Z,25
2017-05-03T05:10:58.854Z,25
2017-05-03T05:11:24.332Z,25
2017-05-03T05:11:49.857Z,25
2017-05-03T05:12:15.338Z,20
2017-05-03T05:12:40.873Z,20
2017-05-03T05:13:06.345Z,20
2017-05-03T05:13:31.849Z,20
2017-05-03T05:13:57.338Z,15
2017-05-03T05:14:22.852Z,15
2017-05-03T05:14:48.344Z,15
2017-05-03T05:15:13.836Z,15
2017-05-03T05:15:39.295Z,15
2017-05-03T05:16:04.785Z,15
2017-05-03T05:16:30.268Z,15
2017-05-03T05:16:55.703Z,15
2017-05-03T05:17:21.182Z,15
2017-05-03T05:17:46.656Z,15
2017-05-03T05:18:12.164Z,15
2017-05-03T05:18:37.626Z,15
2017-05-03T05:19:03.109Z,20
2017-05-03T05:19:28.584Z,20
2017-05-03T05:19:54.123Z,25
2017-05-03T05:20:19.691Z,25
2017-05-03T05:20:45.181Z,30
2017-05-03T05:21:10.671Z,30
2017-05-03T05:21:36.116Z,30
2017-05-03T05:22:01.637Z,30
2017-05-03T05:22:27.118Z,30
2017-05-03T05:22:52.616Z,30
2017-05-03T05:23:18.463Z,30
2017-05-03T05:23:44.051Z,30
2017-05-03T05:24:09.526Z,30
2017-05-03T05:25:28.587Z,35
2017-05-03T05:25:54.083Z,35
2017-05-03T05:26:19.628Z,30
2017-05-03T05:26:45.264Z,35
2017-05-03T05:27:10.820Z,35
2017-05-03T05:27:36.261Z,35
2017-05-03T05:28:01.782Z,35
2017-05-03T05:28:27.286Z,40
2017-05-03T05:28:52.748Z,45
2017-05-03T05:29:18.248Z,50
2017-05-03T05:29:43.788Z,50
2017-05-03T05:30:09.294Z,55
2017-05-03T05:30:34.805Z,55
2017-05-03T05:31:00.326Z,55
2017-05-03T05:31:25.806Z,55
2017-05-03T05:31:51.393Z,50
2017-05-03T05:32:16.937Z,50
2017-05-03T05:32:42.447Z,50
2017-05-03T05:33:07.957Z,40
2017-05-03T05:33:33.486Z,35
2017-05-03T05:33:58.960Z,40
2017-05-03T05:34:24.563Z,40
2017-05-03T05:34:50.036Z,35
2017-05-03T05:35:15.556Z,35
2017-05-03T05:35:41.057Z,35
2017-05-03T05:36:06.554Z,35
2017-05-03T05:36:32.031Z,30
2017-05-03T05:36:57.678Z,30
2017-05-03T05:37:23.173Z,30
2017-05-03T05:37:48.685Z,30
2017-05-03T05:38:14.204Z,30
2017-05-03T05:38:39.659Z,35
2017-05-03T05:39:05.183Z,35
2017-05-03T05:39:30.728Z,35
2017-05-03T05:39:56.225Z,35
2017-05-03T05:40:21.663Z,35
2017-05-03T05:40:47.210Z,30
2017-05-03T05:41:12.733Z,35
2017-05-03T05:41:38.263Z,35
2017-05-03T05:42:03.920Z,40
2017-05-03T05:42:29.412Z,40
2017-05-03T05:42:55.120Z,45
2017-05-03T05:43:20.578Z,50
2017-05-03T05:43:46.093Z,55
2017-05-03T05:44:11.570Z,55
2017-05-03T05:44:37.020Z,60
2017-05-03T05:45:02.550Z,65
2017-05-03T05:45:28.066Z,70
2017-05-03T05:45:53.609Z,70
2017-05-03T05:46:19.178Z,70
2017-05-03T05:46:44.655Z,70
2017-05-03T05:47:10.124Z,75
2017-05-03T05:47:35.618Z,75
2017-05-03T05:48:01.101Z,80
2017-05-03T05:48:26.587Z,80
2017-05-03T05:48:52.142Z,80
2017-05-03T05:49:17.669Z,85
2017-05-03T05:49:43.209Z,90
2017-05-03T05:50:08.727Z,90
2017-05-03T05:50:34.222Z,90
2017-05-03T05:50:59.728Z,90
2017-05-03T05:51:25.217Z,95
2017-05-03T05:51:50.671Z,95
2017-05-03T05:52:16.241Z,100
2017-05-03T05:52:41.724Z,100
2017-05-03T05:53:07.194Z,100
2017-05-03T05:53:32.669Z,105
2017-05-03T05:53:58.129Z,105
2017-05-03T05:54:23.598Z,105
2017-05-03T05:54:49.093Z,110
2017-05-03T05:55:14.588Z,115
2017-05-03T05:55:40.071Z,115
2017-05-03T05:56:05.563Z,115
2017-05-03T05:56:31.036Z,115
2017-05-03T05:56:56.487Z,115
2017-05-03T05:57:21.992Z,115
2017-05-03T05:57:47.486Z,120
2017-05-03T05:58:12.958Z,120
2017-05-03T05:58:38.450Z,125
2017-05-03T05:59:03.927Z,120
2017-05-03T05:59:29.369Z,120
2017-05-03T05:59:54.898Z,115
2017-05-03T06:00:20.377Z,110
2017-05-03T06:00:45.847Z,120
2017-05-03T06:01:11.316Z,125
2017-05-03T06:01:36.844Z,130
2017-05-03T06:02:02.296Z,130
2017-05-03T06:02:27.787Z,130
2017-05-03T06:02:53.292Z,125
2017-05-03T06:03:18.763Z,125
2017-05-03T06:03:44.305Z,125
2017-05-03T06:04:09.762Z,130
2017-05-03T06:04:35.225Z,130
2017-05-03T06:05:00.690Z,130
2017-05-03T06:05:26.244Z,130
2017-05-03T06:05:51.727Z,130
2017-05-03T06:06:17.195Z,135
2017-05-03T06:06:42.711Z,140
2017-05-03T06:07:08.191Z,150
2017-05-03T06:07:33.675Z,145
2017-05-03T06:07:59.168Z,145
2017-05-03T06:08:24.668Z,145
2017-05-03T06:08:50.169Z,145
2017-05-03T06:09:15.676Z,135
2017-05-03T06:09:41.168Z,130
2017-05-03T06:10:06.650Z,130
2017-05-03T06:10:32.154Z,130
2017-05-03T06:10:57.618Z,130
2017-05-03T06:11:23.143Z,135
2017-05-03T06:11:48.695Z,140
2017-05-03T06:12:14.244Z,140
2017-05-03T06:12:39.741Z,135
2017-05-03T06:13:05.285Z,135
2017-05-03T06:13:30.764Z,140
2017-05-03T06:13:56.249Z,130
2017-05-03T06:14:21.712Z,130
2017-05-03T06:14:47.194Z,125
2017-05-03T06:15:12.710Z,125
2017-05-03T06:15:38.187Z,125
2017-05-03T06:16:03.712Z,120
2017-05-03T06:16:29.162Z,115
2017-05-03T06:16:54.643Z,115
2017-05-03T06:17:20.067Z,125
2017-05-03T06:17:45.551Z,125
2017-05-03T06:18:11.001Z,120
2017-05-03T06:18:36.499Z,115
2017-05-03T06:19:01.997Z,115
2017-05-03T06:19:27.493Z,110
2017-05-03T06:19:52.991Z,110
2017-05-03T06:20:18.486Z,115
2017-05-03T06:20:43.982Z,120
2017-05-03T06:21:09.505Z,130
2017-05-03T06:21:34.994Z,125
2017-05-03T06:22:00.473Z,125
2017-05-03T06:22:25.936Z,125
2017-05-03T06:22:51.466Z,125
2017-05-03T06:23:17.018Z,125
2017-05-03T06:23:42.485Z,130
2017-05-03T06:24:07.971Z,130
2017-05-03T06:24:33.473Z,135
2017-05-03T06:24:58.935Z,140
2017-05-03T06:25:24.367Z,135
2017-05-03T06:25:49.860Z,125
2017-05-03T06:26:15.338Z,120
2017-05-03T06:26:40.769Z,120
2017-05-03T06:27:06.247Z,120
2017-05-03T06:27:31.694Z,120
2017-05-03T06:27:57.190Z,115
2017-05-03T06:28:22.711Z,120
2017-05-03T06:28:48.165Z,120
2017-05-03T06:29:13.657Z,130
2017-05-03T06:29:39.129Z,140
2017-05-03T06:30:04.640Z,145
2017-05-03T06:30:30.135Z,155
2017-05-03T06:30:55.623Z,165
2017-05-03T06:31:21.120Z,165
2017-05-03T06:31:46.636Z,170
2017-05-03T06:32:12.102Z,190
2017-05-03T06:32:37.549Z,200
2017-05-03T06:33:03.030Z,210
2017-05-03T06:33:28.504Z,225
2017-05-03T06:33:54.007Z,230
2017-05-03T06:34:19.501Z,235
2017-05-03T06:34:44.982Z,245
2017-05-03T06:35:10.447Z,245
2017-05-03T06:35:35.918Z,250
2017-05-03T06:36:01.495Z,260
2017-05-03T06:36:26.934Z,270
2017-05-03T06:36:52.404Z,270
2017-05-03T06:37:17.870Z,270
2017-05-03T06:37:43.362Z,260
2017-05-03T06:38:08.820Z,265
2017-05-03T06:38:34.320Z,270
2017-05-03T06:38:59.791Z,270
2017-05-03T06:39:25.274Z,275
2017-05-03T06:39:50.774Z,300
2017-05-03T06:40:16.261Z,305
2017-05-03T06:40:41.720Z,295
2017-05-03T06:41:07.203Z,310
2017-05-03T06:41:32.684Z,320
2017-05-03T06:41:58.241Z,325
2017-05-03T06:42:23.723Z,345
2017-05-03T06:42:49.216Z,355
2017-05-03T06:43:14.685Z,360
2017-05-03T06:43:40.164Z,365
2017-05-03T06:44:05.672Z,350
2017-05-03T06:44:31.165Z,340
2017-05-03T06:44:56.637Z,325
2017-05-03T06:45:22.081Z,325
2017-05-03T06:45:47.538Z,310
2017-05-03T06:46:13.048Z,300
2017-05-03T06:46:38.545Z,280
2017-05-03T06:47:04.055Z,290
2017-05-03T06:47:29.513Z,310
2017-05-03T06:47:55.003Z,315
2017-05-03T06:48:20.524Z,320
2017-05-03T06:48:46.125Z,330
2017-05-03T06:49:11.536Z,320
2017-05-03T06:49:37.005Z,310
2017-05-03T06:50:02.490Z,320
2017-05-03T06:50:28.065Z,320
2017-05-03T06:50:53.486Z,325
2017-05-03T06:51:18.943Z,320
2017-05-03T06:51:44.392Z,330
2017-05-03T06:52:09.871Z,325
2017-05-03T06:52:35.340Z,330
2017-05-03T06:53:00.784Z,340
2017-05-03T06:53:26.259Z,335
2017-05-03T06:53:51.751Z,330
2017-05-03T06:54:17.235Z,335
2017-05-03T06:54:42.713Z,340
2017-05-03T06:55:08.200Z,335
2017-05-03T06:55:33.656Z,335
2017-05-03T06:55:59.114Z,345
2017-05-03T06:56:24.591Z,345
2017-05-03T06:56:50.054Z,345
2017-05-03T06:57:15.603Z,335
2017-05-03T06:57:41.128Z,345
2017-05-03T06:58:06.589Z,350
2017-05-03T06:58:32.065Z,365
2017-05-03T06:58:57.571Z,375
2017-05-03T06:59:23.032Z,380
2017-05-03T06:59:48.488Z,380
2017-05-03T07:00:13.977Z,380
2017-05-03T07:00:39.445Z,365
2017-05-03T07:01:04.940Z,350
2017-05-03T07:01:30.403Z,340
2017-05-03T07:01:55.866Z,335
2017-05-03T07:02:21.364Z,320
2017-05-03T07:02:46.838Z,310
2017-05-03T07:03:12.282Z,305
2017-05-03T07:03:37.727Z,290
2017-05-03T07:04:03.216Z,280
2017-05-03T07:04:28.723Z,265
2017-05-03T07:04:54.204Z,255
2017-05-03T07:05:19.673Z,265
2017-05-03T07:05:45.139Z,270
2017-05-03T07:06:10.611Z,260
2017-05-03T07:06:36.093Z,250
2017-05-03T07:07:01.568Z,270
2017-05-03T07:07:27.024Z,275
2017-05-03T07:07:52.531Z,280
2017-05-03T07:08:18.033Z,270
2017-05-03T07:08:43.536Z,280
2017-05-03T07:09:09.012Z,305
2017-05-03T07:09:34.488Z,310
2017-05-03T07:09:59.975Z,320
2017-05-03T07:10:25.464Z,325
2017-05-03T07:10:50.927Z,325
2017-05-03T07:11:16.429Z,320
2017-05-03T07:11:41.929Z,320
2017-05-03T07:12:07.395Z,305
2017-05-03T07:12:32.873Z,290
2017-05-03T07:12:58.342Z,275
2017-05-03T07:13:23.856Z,280
2017-05-03T07:13:49.320Z,295
2017-05-03T07:14:14.791Z,310
2017-05-03T07:14:40.279Z,300
2017-05-03T07:15:05.798Z,275
2017-05-03T07:15:31.329Z,255
2017-05-03T07:15:56.733Z,270
2017-05-03T07:16:22.234Z,280
2017-05-03T07:16:47.709Z,275
2017-05-03T07:17:13.193Z,255
2017-05-03T07:17:38.700Z,245
2017-05-03T07:18:04.158Z,235
2017-05-03T07:18:29.650Z,225
2017-05-03T07:18:55.123Z,235
2017-05-03T07:19:20.600Z,245
2017-05-03T07:19:46.026Z,250
2017-05-03T07:20:11.480Z,255
2017-05-03T07:20:36.957Z,260
2017-05-03T07:21:02.406Z,280
2017-05-03T07:21:27.877Z,305
2017-05-03T07:21:53.403Z,320
2017-05-03T07:22:18.843Z,325
2017-05-03T07:22:44.353Z,325
2017-05-03T07:23:09.819Z,330
2017-05-03T07:23:35.265Z,340
2017-05-03T07:24:00.715Z,350
2017-05-03T07:24:26.206Z,365
2017-05-03T07:24:51.695Z,375
2017-05-03T07:25:17.179Z,385
2017-05-03T07:25:42.690Z,385
2017-05-03T07:26:08.148Z,385
2017-05-03T07:26:33.646Z,385
2017-05-03T07:26:59.119Z,375
2017-05-03T07:27:24.593Z,360
2017-05-03T07:27:50.092Z,355
2017-05-03T07:28:15.586Z,365
2017-05-03T07:28:41.056Z,390
2017-05-03T07:29:06.531Z,420
2017-05-03T07:29:31.985Z,445
2017-05-03T07:29:57.451Z,460
2017-05-03T07:30:22.953Z,470
2017-05-03T07:30:48.442Z,465
2017-05-03T07:31:13.913Z,460
2017-05-03T07:31:39.358Z,460
2017-05-03T07:32:04.870Z,460
2017-05-03T07:32:30.335Z,465
2017-05-03T07:32:55.841Z,475
2017-05-03T07:33:21.308Z,480
2017-05-03T07:33:46.754Z,475
2017-05-03T07:34:12.236Z,475
2017-05-03T07:34:37.707Z,480
2017-05-03T07:35:03.199Z,480
2017-05-03T07:35:28.677Z,490
2017-05-03T07:35:54.178Z,505
2017-05-03T07:36:19.685Z,515
2017-05-03T07:36:45.131Z,510
2017-05-03T07:37:10.618Z,505
2017-05-03T07:38:34.647Z,465
2017-05-03T07:39:00.162Z,450
2017-05-03T07:39:25.631Z,440
2017-05-03T07:39:51.105Z,420
2017-05-03T07:40:16.576Z,405
2017-05-03T07:40:42.025Z,415
2017-05-03T07:41:55.320Z,380
2017-05-03T07:42:20.806Z,370
2017-05-03T07:42:46.288Z,370
2017-05-03T07:43:11.768Z,360
2017-05-03T07:43:37.229Z,360
2017-05-03T07:44:02.695Z,350
2017-05-03T07:44:28.169Z,335
2017-05-03T07:44:53.652Z,310
2017-05-03T07:45:19.157Z,300
2017-05-03T07:45:44.662Z,300
2017-05-03T07:46:10.159Z,310
2017-05-03T07:46:35.662Z,320
2017-05-03T07:47:01.188Z,320
2017-05-03T07:47:26.653Z,305
2017-05-03T07:47:52.163Z,285
2017-05-03T07:48:17.641Z,280
2017-05-03T07:48:43.150Z,275
2017-05-03T07:49:08.634Z,270
2017-05-03T07:49:34.131Z,260
2017-05-03T07:49:59.592Z,255
2017-05-03T07:50:25.040Z,260
2017-05-03T07:50:50.513Z,265
2017-05-03T07:51:16.067Z,265
2017-05-03T07:51:41.672Z,270
2017-05-03T07:52:07.228Z,280
2017-05-03T07:52:32.673Z,290
2017-05-03T07:52:58.153Z,300
2017-05-03T07:53:23.659Z,320
2017-05-03T07:53:49.116Z,325
2017-05-03T07:54:14.683Z,330
2017-05-03T07:54:40.291Z,335
2017-05-03T07:55:05.765Z,340
2017-05-03T07:55:31.238Z,325
2017-05-03T07:55:56.707Z,320
2017-05-03T07:56:22.211Z,325
2017-05-03T07:56:47.665Z,325
2017-05-03T07:57:13.157Z,330
2017-05-03T07:57:38.708Z,325
2017-05-03T07:58:04.169Z,300
2017-05-03T07:58:29.624Z,285
2017-05-03T07:58:55.130Z,275
2017-05-03T07:59:20.626Z,270
2017-05-03T07:59:46.110Z,280
2017-05-03T08:00:11.619Z,295
2017-05-03T08:00:37.058Z,315
2017-05-03T08:01:02.541Z,335
2017-05-03T08:01:28.038Z,360
2017-05-03T08:01:53.505Z,355
2017-05-03T08:02:19.003Z,320
2017-05-03T08:02:44.515Z,300
2017-05-03T08:03:09.968Z,295
2017-05-03T08:03:35.487Z,310
2017-05-03T08:04:00.982Z,335
2017-05-03T08:04:26.451Z,355
2017-05-03T08:04:51.917Z,385
2017-05-03T08:05:17.376Z,405
2017-05-03T08:05:42.854Z,435
2017-05-03T08:06:08.330Z,460
2017-05-03T08:06:33.814Z,470
2017-05-03T08:06:59.289Z,455
2017-05-03T08:07:24.732Z,425
2017-05-03T08:07:50.187Z,410
2017-05-03T08:08:15.676Z,395
2017-05-03T08:08:41.156Z,380
2017-05-03T08:09:06.645Z,360
2017-05-03T08:09:32.096Z,340
2017-05-03T08:09:57.614Z,320
2017-05-03T08:10:23.091Z,300
2017-05-03T08:10:48.520Z,285
2017-05-03T08:11:14.012Z,265
2017-05-03T08:11:39.487Z,255
2017-05-03T08:12:04.951Z,240
2017-05-03T08:12:30.443Z,230
2017-05-03T08:12:55.940Z,225
2017-05-03T08:13:21.448Z,220
2017-05-03T08:13:46.929Z,205
2017-05-03T08:14:12.431Z,205
2017-05-03T08:14:37.907Z,205
2017-05-03T08:15:03.402Z,205
2017-05-03T08:15:28.886Z,220
2017-05-03T08:15:54.362Z,235
2017-05-03T08:16:19.869Z,260
2017-05-03T08:16:45.303Z,280
2017-05-03T08:17:10.776Z,290
2017-05-03T08:17:36.260Z,285
2017-05-03T08:18:01.726Z,280
2017-05-03T08:18:27.220Z,270
2017-05-03T08:18:52.687Z,265
2017-05-03T08:19:18.190Z,265
2017-05-03T08:19:43.705Z,265
2017-05-03T08:20:09.161Z,275
2017-05-03T08:20:34.635Z,290
2017-05-03T08:21:00.074Z,280
2017-05-03T08:21:25.572Z,280
2017-05-03T08:21:51.015Z,295
2017-05-03T08:22:16.527Z,305
2017-05-03T08:22:41.994Z,325
2017-05-03T08:23:07.469Z,335
2017-05-03T08:23:32.973Z,340
2017-05-03T08:23:58.434Z,345
2017-05-03T08:24:23.928Z,370
2017-05-03T08:24:49.417Z,420
2017-05-03T08:25:14.929Z,450
2017-05-03T08:25:40.396Z,460
2017-05-03T08:26:05.863Z,495
2017-05-03T08:26:31.348Z,530
2017-05-03T08:26:56.855Z,560
2017-05-03T08:27:22.350Z,575
2017-05-03T08:27:47.804Z,580
2017-05-03T08:28:13.278Z,585
2017-05-03T08:28:38.724Z,580
2017-05-03T08:29:04.215Z,580
2017-05-03T08:29:29.709Z,580
2017-05-03T08:29:55.204Z,595
2017-05-03T08:30:20.727Z,615
2017-05-03T08:30:46.241Z,615
2017-05-03T08:31:11.730Z,620
2017-05-03T08:31:37.213Z,625
2017-05-03T08:32:02.686Z,640
2017-05-03T08:32:28.188Z,635
2017-05-03T08:32:53.646Z,645
2017-05-03T08:33:19.116Z,650
2017-05-03T08:33:44.617Z,620
2017-05-03T08:34:10.099Z,585
2017-05-03T08:34:35.654Z,555
2017-05-03T08:35:01.145Z,550
2017-05-03T08:35:26.624Z,555
2017-05-03T08:35:52.086Z,555
2017-05-03T08:36:17.626Z,525
2017-05-03T08:36:43.103Z,495
2017-05-03T08:37:08.625Z,480
2017-05-03T08:37:34.143Z,470
2017-05-03T08:37:59.636Z,470
2017-05-03T08:38:25.087Z,460
2017-05-03T08:38:50.608Z,445
2017-05-03T08:39:16.087Z,430
2017-05-03T08:39:41.569Z,430
2017-05-03T08:40:07.023Z,430
2017-05-03T08:40:32.551Z,460
2017-05-03T08:40:58.008Z,505
2017-05-03T08:41:23.482Z,540
2017-05-03T08:41:48.956Z,505
2017-05-03T08:42:14.452Z,465
2017-05-03T08:42:39.929Z,440
2017-05-03T08:43:05.415Z,415
2017-05-03T08:43:30.893Z,405
2017-05-03T08:43:56.361Z,410
2017-05-03T08:44:21.827Z,395
2017-05-03T08:44:47.289Z,390
2017-05-03T08:45:12.782Z,390
2017-05-03T08:45:38.235Z,415
2017-05-03T08:46:03.701Z,415
2017-05-03T08:46:29.187Z,400
2017-05-03T08:46:54.649Z,380
2017-05-03T08:47:20.138Z,365
2017-05-03T08:47:45.606Z,355
2017-05-03T08:48:11.079Z,360
2017-05-03T08:48:36.563Z,380
2017-05-03T08:49:02.067Z,420
2017-05-03T08:49:27.552Z,445
2017-05-03T08:49:53.005Z,470
2017-05-03T08:50:18.498Z,480
2017-05-03T08:50:43.964Z,475
2017-05-03T08:51:09.442Z,465
2017-05-03T08:51:34.958Z,480
2017-05-03T08:52:00.467Z,495
2017-05-03T08:52:25.916Z,510
2017-05-03T08:52:51.401Z,520
2017-05-03T08:53:16.891Z,530
2017-05-03T08:53:42.371Z,545
2017-05-03T08:54:07.855Z,525
2017-05-03T08:54:33.346Z,515
2017-05-03T08:54:58.803Z,520
2017-05-03T08:55:24.274Z,505
2017-05-03T08:55:49.733Z,495
2017-05-03T08:56:15.197Z,510
2017-05-03T08:56:40.689Z,500
2017-05-03T08:57:06.190Z,480
2017-05-03T08:57:31.667Z,445
2017-05-03T08:57:57.168Z,415
2017-05-03T08:58:22.742Z,410
2017-05-03T08:58:48.203Z,420
2017-05-03T08:59:13.753Z,435
2017-05-03T08:59:39.320Z,435
2017-05-03T09:00:04.887Z,425
2017-05-03T09:00:30.356Z,425
2017-05-03T09:00:55.810Z,425
2017-05-03T09:02:04.039Z,435
2017-05-03T09:02:29.518Z,450
2017-05-03T09:02:54.959Z,455
2017-05-03T09:03:20.457Z,460
2017-05-03T09:03:45.988Z,485
2017-05-03T09:04:11.465Z,505
2017-05-03T09:04:36.947Z,525
2017-05-03T09:05:02.472Z,525
2017-05-03T09:05:27.932Z,515
2017-05-03T09:05:53.432Z,500
2017-05-03T09:06:18.901Z,500
2017-05-03T09:06:44.375Z,500
2017-05-03T09:07:09.833Z,505
2017-05-03T09:07:35.282Z,530
2017-05-03T09:08:00.758Z,540
2017-05-03T09:08:26.249Z,515
2017-05-03T09:08:51.719Z,495
2017-05-03T09:09:17.227Z,500
2017-05-03T09:09:42.717Z,515
2017-05-03T09:10:08.204Z,540
2017-05-03T09:10:33.704Z,560
2017-05-03T09:10:59.194Z,560
2017-05-03T09:11:24.663Z,555
2017-05-03T09:11:50.159Z,550
2017-05-03T09:12:15.628Z,555
2017-05-03T09:12:41.119Z,560
2017-05-03T09:13:06.590Z,570
2017-05-03T09:13:32.079Z,565
2017-05-03T09:13:57.571Z,555
2017-05-03T09:14:23.042Z,550
2017-05-03T09:14:48.491Z,555
2017-05-03T09:15:13.988Z,565
2017-05-03T09:15:39.481Z,575
2017-05-03T09:16:04.973Z,585
2017-05-03T09:16:30.479Z,585
2017-05-03T09:16:55.963Z,595
2017-05-03T09:17:21.467Z,610
2017-05-03T09:17:46.976Z,625
2017-05-03T09:18:12.462Z,635
2017-05-03T09:18:37.961Z,615
2017-05-03T09:19:03.426Z,590
2017-05-03T09:19:28.905Z,570
2017-05-03T09:19:54.442Z,550
2017-05-03T09:20:19.959Z,535
2017-05-03T09:20:45.408Z,525
2017-05-03T09:21:10.960Z,515
2017-05-03T09:21:36.424Z,490
2017-05-03T09:22:01.921Z,460
2017-05-03T09:22:27.432Z,430
2017-05-03T09:22:52.937Z,415
2017-05-03T09:23:18.438Z,410
2017-05-03T09:23:43.912Z,420
2017-05-03T09:24:09.374Z,430
2017-05-03T09:24:34.852Z,445
2017-05-03T09:25:00.325Z,460
2017-05-03T09:25:25.797Z,480
2017-05-03T09:25:51.324Z,500
2017-05-03T09:26:16.778Z,495
2017-05-03T09:26:42.342Z,475
2017-05-03T09:27:07.834Z,455
2017-05-03T09:27:33.316Z,445
2017-05-03T09:27:58.816Z,445
2017-05-03T09:28:24.301Z,465
2017-05-03T09:28:49.780Z,490
2017-05-03T09:29:15.231Z,515
2017-05-03T09:29:40.734Z,520
2017-05-03T09:30:06.197Z,535
2017-05-03T09:30:31.662Z,540
2017-05-03T09:30:57.160Z,525
2017-05-03T09:31:22.612Z,510
2017-05-03T09:31:48.126Z,485
2017-05-03T09:32:13.587Z,450
2017-05-03T09:32:39.084Z,415
2017-05-03T09:33:04.550Z,405
2017-05-03T09:33:30.019Z,435
2017-05-03T09:33:55.498Z,450
2017-05-03T09:34:20.995Z,460
2017-05-03T09:34:46.426Z,450
2017-05-03T09:35:11.934Z,445
2017-05-03T09:35:37.406Z,440
2017-05-03T09:36:02.870Z,435
2017-05-03T09:36:28.326Z,430
2017-05-03T09:36:53.825Z,425
2017-05-03T09:37:19.335Z,445
2017-05-03T09:37:44.783Z,475
2017-05-03T09:38:10.284Z,470
2017-05-03T09:38:35.729Z,455
2017-05-03T09:39:01.215Z,445
2017-05-03T09:39:26.681Z,440
2017-05-03T09:39:52.156Z,450
2017-05-03T09:40:17.676Z,450
2017-05-03T09:40:43.122Z,460
2017-05-03T09:41:08.565Z,470
2017-05-03T09:41:34.069Z,460
2017-05-03T09:41:59.523Z,465
2017-05-03T09:42:24.995Z,480
2017-05-03T09:42:50.440Z,490
2017-05-03T09:43:15.915Z,500
2017-05-03T09:43:41.360Z,515
2017-05-03T09:44:06.829Z,530
2017-05-03T09:44:32.341Z,535
2017-05-03T09:44:57.797Z,530
2017-05-03T09:45:23.289Z,510
2017-05-03T09:45:48.758Z,495
2017-05-03T09:46:14.233Z,480
2017-05-03T09:46:39.713Z,480
2017-05-03T09:47:05.198Z,480
2017-05-03T09:47:30.665Z,495
2017-05-03T09:47:56.164Z,520
2017-05-03T09:48:21.654Z,545
2017-05-03T09:48:47.111Z,575
2017-05-03T09:49:12.580Z,585
2017-05-03T09:49:38.064Z,560
2017-05-03T09:50:03.553Z,540
2017-05-03T09:50:29.006Z,510
2017-05-03T09:50:54.485Z,470
2017-05-03T09:51:19.940Z,455
2017-05-03T09:51:45.436Z,440
2017-05-03T09:52:10.905Z,455
2017-05-03T09:52:36.390Z,455
2017-05-03T09:53:01.845Z,465
2017-05-03T09:53:27.301Z,470
2017-05-03T09:53:52.809Z,485
2017-05-03T09:54:18.276Z,505
2017-05-03T09:54:43.726Z,520
2017-05-03T09:55:09.205Z,540
2017-05-03T09:55:34.708Z,550
2017-05-03T09:56:00.185Z,565
2017-05-03T09:56:25.664Z,565
2017-05-03T09:56:51.186Z,580
2017-05-03T09:57:16.681Z,590
2017-05-03T09:57:42.191Z,575
2017-05-03T09:58:07.695Z,570
2017-05-03T09:58:33.194Z,570
2017-05-03T09:58:58.704Z,570